Time;durP1;ratioP1;P1;durP2;ratioP2;P2;SDS_P1;SDS_P2;PMS_P1;PMS_P2;Temp;Humidity;BMP_temperature;BMP_pressure;BME280_temperature;BME280_humidity;BME280_pressure;Samples;Min_cycle;Max_cycle;Signal;HPM_P1;HPM_P2
2023/03/19 00:01:26;;;;;;;2.78;1.20;;;13.50;93.30;;;;;;4991766;28;20081;-75
2023/03/19 00:03:52;;;;;;;2.83;1.48;;;13.40;93.50;;;;;;4990398;28;20501;-75
2023/03/19 00:06:18;;;;;;;4.60;1.35;;;13.40;94.00;;;;;;4989982;28;20473;-76
2023/03/19 00:08:44;;;;;;;2.97;1.30;;;13.30;94.40;;;;;;4990384;28;20038;-76
2023/03/19 00:11:11;;;;;;;4.20;1.65;;;13.30;94.50;;;;;;4990336;28;20030;-75
2023/03/19 00:13:38;;;;;;;2.70;1.20;;;13.30;94.20;;;;;;4990762;28;20057;-75
2023/03/19 00:16:05;;;;;;;2.10;1.00;;;13.30;94.60;;;;;;4990667;28;20927;-76
2023/03/19 00:18:31;;;;;;;4.80;1.30;;;13.30;94.70;;;;;;4990387;28;20106;-76
2023/03/19 00:20:57;;;;;;;3.47;1.10;;;13.20;95.00;;;;;;4991895;28;20042;-75
2023/03/19 00:23:23;;;;;;;4.40;1.20;;;13.20;94.90;;;;;;4991861;28;20050;-75
2023/03/19 00:25:49;;;;;;;2.40;1.00;;;13.20;94.90;;;;;;4992514;28;20048;-75
2023/03/19 00:28:16;;;;;;;1.98;0.80;;;13.30;95.00;;;;;;4991389;28;20073;-76
2023/03/19 00:30:43;;;;;;;2.92;1.25;;;13.30;94.90;;;;;;4991987;28;20100;-75
2023/03/19 00:33:09;;;;;;;2.97;1.05;;;13.30;94.90;;;;;;4997555;28;20026;-74
2023/03/19 00:35:35;;;;;;;3.42;1.10;;;13.30;94.80;;;;;;4991211;28;20053;-74
2023/03/19 00:38:01;;;;;;;3.17;1.55;;;13.40;94.80;;;;;;4990911;28;20105;-75
2023/03/19 00:40:26;;;;;;;3.10;1.27;;;13.30;95.00;;;;;;4990618;28;20046;-74
2023/03/19 00:42:52;;;;;;;2.92;1.42;;;13.30;94.90;;;;;;4990900;28;20062;-74
2023/03/19 00:45:18;;;;;;;4.25;1.50;;;13.30;94.80;;;;;;4990878;28;20027;-75
2023/03/19 00:47:44;;;;;;;1.98;1.10;;;13.30;95.00;;;;;;4990482;28;20044;-75
2023/03/19 00:50:10;;;;;;;2.28;1.30;;;13.30;95.00;;;;;;4990792;28;20057;-74
2023/03/19 00:52:36;;;;;;;2.80;1.25;;;13.40;95.20;;;;;;4989721;28;20093;-75
2023/03/19 00:55:01;;;;;;;4.43;1.45;;;13.40;95.00;;;;;;4990782;28;20109;-75
2023/03/19 00:57:27;;;;;;;3.50;1.70;;;13.30;94.90;;;;;;4990360;28;20076;-74
2023/03/19 00:59:52;;;;;;;3.05;1.38;;;13.30;95.00;;;;;;4995302;28;20018;-74
2023/03/19 01:02:18;;;;;;;3.45;1.80;;;13.30;94.90;;;;;;4990176;28;20033;-74
2023/03/19 01:04:46;;;;;;;3.13;1.75;;;13.30;95.10;;;;;;4988565;28;20125;-74
2023/03/19 01:07:12;;;;;;;4.57;1.75;;;13.30;95.00;;;;;;4990265;28;20026;-74
2023/03/19 01:09:38;;;;;;;2.85;1.63;;;13.20;95.00;;;;;;4990177;28;20561;-74
2023/03/19 01:12:04;;;;;;;3.75;1.67;;;13.20;95.20;;;;;;4990888;28;20019;-74
2023/03/19 01:14:31;;;;;;;3.95;2.10;;;13.20;95.20;;;;;;4990002;28;20033;-76
2023/03/19 01:16:57;;;;;;;3.30;1.45;;;13.20;95.30;;;;;;4990050;28;20783;-75
2023/03/19 01:19:23;;;;;;;5.15;1.85;;;13.20;95.30;;;;;;4990457;28;20113;-76
2023/03/19 01:21:49;;;;;;;3.20;1.60;;;13.30;95.20;;;;;;4990303;28;20105;-76
2023/03/19 01:24:15;;;;;;;3.33;1.73;;;13.30;95.30;;;;;;4990635;28;20090;-75
2023/03/19 01:26:41;;;;;;;3.70;1.83;;;13.30;95.30;;;;;;4988816;28;20117;-75
2023/03/19 01:29:08;;;;;;;3.05;1.58;;;13.30;95.30;;;;;;4989530;28;20026;-76
2023/03/19 01:31:34;;;;;;;2.40;1.67;;;13.30;95.30;;;;;;4990161;28;20030;-75
2023/03/19 01:34:00;;;;;;;3.50;1.40;;;13.30;95.30;;;;;;4985370;28;20757;-75
2023/03/19 01:36:26;;;;;;;5.78;2.25;;;13.30;95.30;;;;;;4989494;28;20080;-75
2023/03/19 01:38:52;;;;;;;3.17;1.60;;;13.30;95.30;;;;;;4989417;28;20114;-75
2023/03/19 01:41:18;;;;;;;3.58;1.13;;;13.20;95.30;;;;;;4990001;28;20037;-75
2023/03/19 01:43:44;;;;;;;3.67;1.83;;;13.20;95.30;;;;;;4988559;28;20018;-74
2023/03/19 01:46:21;;;;;;;2.75;1.50;;;13.10;95.30;;;;;;4989546;28;20109;-74
2023/03/19 01:48:48;;;;;;;3.20;1.58;;;13.10;95.50;;;;;;4989391;28;20026;-74
2023/03/19 01:51:17;;;;;;;3.97;1.77;;;13.10;95.50;;;;;;4988979;28;20036;-75
2023/03/19 01:53:49;;;;;;;3.80;1.42;;;13.10;95.30;;;;;;4989726;28;20077;-75
2023/03/19 01:56:27;;;;;;;3.35;1.65;;;13.00;95.60;;;;;;4989114;28;20069;-76
2023/03/19 01:58:56;;;;;;;4.47;1.60;;;13.00;95.70;;;;;;4978421;28;20072;-75
2023/03/19 02:01:22;;;;;;;5.13;2.10;;;13.00;95.80;;;;;;4988062;28;20109;-74
2023/03/19 02:03:50;;;;;;;3.78;1.90;;;13.00;96.00;;;;;;4988985;28;20101;-75
2023/03/19 02:06:18;;;;;;;5.00;2.38;;;12.90;96.00;;;;;;4989571;28;20023;-75
2023/03/19 02:08:44;;;;;;;6.03;3.03;;;13.00;96.10;;;;;;4989005;28;20400;-74
2023/03/19 02:11:10;;;;;;;4.70;2.60;;;12.90;96.20;;;;;;4989451;28;20027;-76
2023/03/19 02:13:36;;;;;;;9.85;4.07;;;12.90;96.20;;;;;;4989269;28;20062;-76
2023/03/19 02:16:03;;;;;;;7.15;2.60;;;12.90;96.30;;;;;;4988850;28;20125;-75
2023/03/19 02:18:30;;;;;;;6.18;2.78;;;13.00;96.30;;;;;;4988010;28;20493;-75
2023/03/19 02:21:13;;;;;;;4.75;2.30;;;12.90;96.40;;;;;;4989927;28;20069;-76
2023/03/19 02:23:51;;;;;;;5.00;2.20;;;12.90;96.50;;;;;;4996857;28;20026;-76
2023/03/19 02:26:19;;;;;;;5.88;2.45;;;12.90;96.50;;;;;;4978754;28;20157;-75
2023/03/19 02:28:47;;;;;;;6.43;2.65;;;12.90;96.50;;;;;;4990367;28;20110;-75
2023/03/19 02:31:14;;;;;;;4.78;2.28;;;12.90;96.70;;;;;;4990566;28;20026;-76
2023/03/19 02:33:40;;;;;;;6.38;2.33;;;12.90;96.80;;;;;;4988073;28;20081;-76
2023/03/19 02:36:12;;;;;;;4.80;2.80;;;12.80;96.90;;;;;;4989756;28;20109;-76
2023/03/19 02:38:40;;;;;;;4.40;2.25;;;12.80;96.90;;;;;;4988917;28;20045;-74
2023/03/19 02:41:07;;;;;;;4.60;2.60;;;12.90;96.90;;;;;;4989460;28;20029;-76
2023/03/19 02:43:36;;;;;;;6.53;2.65;;;12.90;96.90;;;;;;4989155;28;20026;-75
2023/03/19 02:46:04;;;;;;;6.97;2.92;;;12.90;96.90;;;;;;4988415;28;20109;-76
2023/03/19 02:48:31;;;;;;;7.82;3.13;;;12.80;96.90;;;;;;4987425;28;20397;-75
2023/03/19 02:50:57;;;;;;;5.47;2.50;;;12.80;97.00;;;;;;4989597;28;20088;-76
2023/03/19 02:53:23;;;;;;;5.45;2.70;;;12.80;97.00;;;;;;4987836;28;20100;-75
2023/03/19 02:55:49;;;;;;;4.43;2.58;;;12.70;97.20;;;;;;4987867;28;20599;-76
2023/03/19 02:58:15;;;;;;;3.83;2.22;;;12.70;97.30;;;;;;4990053;28;20030;-75
2023/03/19 03:00:40;;;;;;;7.18;3.20;;;12.70;97.20;;;;;;4989727;28;20706;-75
2023/03/19 03:03:07;;;;;;;5.80;2.55;;;12.70;97.40;;;;;;4989676;28;20026;-76
2023/03/19 03:05:34;;;;;;;6.05;3.30;;;12.70;97.40;;;;;;4987208;28;20023;-75
2023/03/19 03:08:01;;;;;;;5.75;2.88;;;12.70;97.40;;;;;;4989371;28;20068;-76
2023/03/19 03:10:27;;;;;;;5.63;3.17;;;12.70;97.50;;;;;;4989294;28;20026;-76
2023/03/19 03:12:53;;;;;;;5.03;2.72;;;12.70;97.50;;;;;;4987253;28;20022;-75
2023/03/19 03:15:18;;;;;;;5.20;2.95;;;12.70;97.50;;;;;;4990037;28;20067;-74
2023/03/19 03:17:44;;;;;;;4.03;2.40;;;12.70;97.60;;;;;;4993025;28;20389;-75
2023/03/19 03:20:12;;;;;;;5.50;3.33;;;12.70;97.60;;;;;;4992994;28;20137;-75
2023/03/19 03:22:39;;;;;;;5.40;3.28;;;12.70;97.70;;;;;;4991578;28;20113;-75
2023/03/19 03:25:05;;;;;;;5.47;3.40;;;12.70;97.70;;;;;;4992346;28;20027;-75
2023/03/19 03:27:31;;;;;;;6.93;3.25;;;12.70;97.70;;;;;;4991713;28;20053;-75
2023/03/19 03:29:57;;;;;;;5.53;3.42;;;12.70;97.80;;;;;;4991514;28;20080;-76
2023/03/19 03:32:24;;;;;;;8.00;3.00;;;12.70;97.80;;;;;;4991784;28;20019;-76
2023/03/19 03:34:49;;;;;;;4.95;3.00;;;12.70;97.80;;;;;;4992132;28;20141;-76
2023/03/19 03:37:16;;;;;;;5.45;2.63;;;12.70;97.70;;;;;;4992677;28;20177;-75
2023/03/19 03:39:42;;;;;;;5.68;3.25;;;12.70;97.80;;;;;;4991612;28;20022;-76
2023/03/19 03:42:08;;;;;;;7.45;3.45;;;12.70;97.90;;;;;;4992458;28;20389;-76
2023/03/19 03:44:33;;;;;;;6.35;3.08;;;12.70;97.90;;;;;;4986020;28;20027;-76
2023/03/19 03:46:59;;;;;;;7.82;4.10;;;12.70;97.90;;;;;;4992244;28;20042;-75
2023/03/19 03:49:25;;;;;;;7.40;4.07;;;12.70;98.00;;;;;;4992107;28;20044;-77
2023/03/19 03:51:51;;;;;;;4.47;2.58;;;12.70;98.10;;;;;;4990924;28;20436;-75
2023/03/19 03:54:17;;;;;;;6.90;3.25;;;12.70;97.90;;;;;;4992331;28;20060;-75
2023/03/19 03:56:43;;;;;;;5.13;3.05;;;12.70;97.90;;;;;;4991005;28;20038;-75
2023/03/19 03:59:08;;;;;;;7.38;4.10;;;12.70;97.80;;;;;;4991825;28;20480;-75
2023/03/19 04:01:35;;;;;;;6.97;3.72;;;12.70;97.80;;;;;;4990138;28;20424;-77
2023/03/19 04:04:00;;;;;;;7.50;5.03;;;12.70;97.90;;;;;;4990212;28;20019;-76
2023/03/19 04:06:27;;;;;;;6.53;4.15;;;12.70;98.10;;;;;;4991709;28;20085;-76
2023/03/19 04:08:52;;;;;;;7.18;4.60;;;12.70;98.10;;;;;;4991427;28;20034;-76
2023/03/19 04:11:18;;;;;;;6.82;4.95;;;12.70;98.20;;;;;;4992057;28;20069;-76
2023/03/19 04:13:45;;;;;;;7.60;4.60;;;12.70;98.20;;;;;;4991292;28;20102;-75
2023/03/19 04:16:11;;;;;;;6.65;4.22;;;12.70;98.30;;;;;;4991322;28;20104;-76
2023/03/19 04:18:37;;;;;;;7.32;4.80;;;12.60;98.40;;;;;;4991305;28;20034;-75
2023/03/19 04:21:04;;;;;;;9.45;5.25;;;12.60;98.40;;;;;;4991506;28;20052;-74
2023/03/19 04:23:31;;;;;;;7.15;4.50;;;12.70;98.40;;;;;;4991008;28;20069;-74
2023/03/19 04:26:01;;;;;;;7.38;4.28;;;12.70;98.40;;;;;;4990952;28;20548;-75
2023/03/19 04:28:27;;;;;;;11.02;5.22;;;12.60;98.20;;;;;;4991006;28;20041;-74
2023/03/19 04:31:03;;;;;;;7.32;4.80;;;12.70;98.30;;;;;;4990571;28;20485;-74
2023/03/19 04:33:29;;;;;;;11.68;5.53;;;12.70;98.30;;;;;;4990563;28;20028;-75
2023/03/19 04:35:56;;;;;;;7.30;4.82;;;12.70;98.20;;;;;;4990880;28;20018;-76
2023/03/19 04:38:22;;;;;;;10.48;5.97;;;12.70;98.30;;;;;;4989101;28;20481;-75
2023/03/19 04:40:48;;;;;;;7.40;4.93;;;12.70;98.30;;;;;;4990895;28;20023;-77
2023/03/19 04:43:14;;;;;;;10.02;5.10;;;12.80;98.30;;;;;;4991087;28;20038;-77
2023/03/19 04:45:40;;;;;;;8.52;5.55;;;12.80;98.30;;;;;;4990561;28;20054;-75
2023/03/19 04:48:06;;;;;;;8.45;5.97;;;12.80;98.20;;;;;;4991504;28;20050;-74
2023/03/19 04:50:33;;;;;;;8.40;5.63;;;12.80;98.30;;;;;;4991044;28;20443;-76
2023/03/19 04:52:59;;;;;;;9.70;6.75;;;12.70;98.30;;;;;;4991286;28;20583;-76
2023/03/19 04:55:25;;;;;;;9.80;6.22;;;12.70;98.30;;;;;;4989637;28;20027;-77
2023/03/19 04:57:50;;;;;;;8.10;5.57;;;12.70;98.30;;;;;;4991001;28;20034;-76
2023/03/19 05:00:16;;;;;;;12.63;7.93;;;12.80;98.40;;;;;;4989889;28;20026;-77
2023/03/19 05:02:42;;;;;;;10.25;6.45;;;12.70;98.30;;;;;;4990607;28;20680;-75
2023/03/19 05:05:11;;;;;;;10.52;7.63;;;12.70;98.40;;;;;;5006745;28;20021;-74
2023/03/19 05:07:37;;;;;;;8.32;5.38;;;12.70;98.50;;;;;;4990331;28;20076;-75
2023/03/19 05:10:03;;;;;;;10.45;7.07;;;12.60;98.30;;;;;;4991113;28;20023;-75
2023/03/19 05:12:29;;;;;;;10.95;6.93;;;12.70;98.40;;;;;;4993490;28;20027;-75
2023/03/19 05:14:55;;;;;;;11.02;7.30;;;12.70;98.50;;;;;;4991997;28;20053;-76
2023/03/19 05:17:23;;;;;;;10.52;6.95;;;12.70;98.50;;;;;;4990187;28;20050;-77
2023/03/19 05:19:48;;;;;;;11.52;9.00;;;12.70;98.50;;;;;;4990289;28;20027;-76
2023/03/19 05:22:14;;;;;;;11.88;8.50;;;12.70;98.50;;;;;;4990805;28;20031;-76
2023/03/19 05:24:40;;;;;;;10.50;6.65;;;12.60;98.50;;;;;;4993526;28;20066;-76
2023/03/19 05:27:06;;;;;;;16.08;11.88;;;12.60;98.40;;;;;;4990143;28;20030;-77
2023/03/19 05:29:32;;;;;;;10.55;7.68;;;12.60;98.30;;;;;;4989516;28;20014;-76
2023/03/19 05:31:58;;;;;;;14.27;8.77;;;12.60;98.30;;;;;;4990136;28;20019;-76
2023/03/19 05:34:24;;;;;;;14.10;9.73;;;12.60;98.40;;;;;;4983382;28;20018;-77
2023/03/19 05:36:50;;;;;;;16.88;11.75;;;12.60;98.50;;;;;;4989509;28;20038;-75
2023/03/19 05:39:16;;;;;;;13.80;9.73;;;12.50;98.60;;;;;;4988566;28;20022;-74
2023/03/19 05:41:41;;;;;;;13.95;9.65;;;12.50;98.70;;;;;;4989306;28;20647;-74
2023/03/19 05:44:07;;;;;;;16.77;12.60;;;12.50;98.70;;;;;;4989493;28;20053;-75
2023/03/19 05:46:33;;;;;;;19.88;13.85;;;12.50;98.70;;;;;;4988081;28;20381;-76
2023/03/19 05:48:59;;;;;;;16.45;11.18;;;12.50;98.70;;;;;;4989787;28;20015;-75
2023/03/19 05:51:25;;;;;;;12.90;8.90;;;12.40;99.00;;;;;;4989100;28;20031;-76
2023/03/19 05:53:50;;;;;;;18.50;14.65;;;12.40;98.80;;;;;;4989320;28;20025;-75
2023/03/19 05:56:16;;;;;;;20.52;15.25;;;12.40;98.70;;;;;;4989401;28;20025;-74
2023/03/19 05:58:42;;;;;;;16.88;11.80;;;12.30;98.80;;;;;;4987018;28;20181;-76
2023/03/19 06:01:07;;;;;;;19.50;14.57;;;12.30;98.80;;;;;;4989755;28;20026;-75
2023/03/19 06:03:33;;;;;;;19.15;14.07;;;12.30;98.80;;;;;;4989112;28;20477;-75
2023/03/19 06:06:00;;;;;;;24.38;18.00;;;12.30;98.60;;;;;;4989270;28;20026;-75
2023/03/19 06:08:25;;;;;;;22.17;14.57;;;12.40;98.70;;;;;;4988417;28;20022;-74
2023/03/19 06:10:52;;;;;;;23.33;16.58;;;12.40;98.70;;;;;;4988897;28;20492;-74
2023/03/19 06:13:17;;;;;;;22.02;16.20;;;12.40;98.80;;;;;;4987982;28;20026;-75
2023/03/19 06:15:43;;;;;;;19.00;13.70;;;12.40;98.70;;;;;;4988764;28;20057;-75
2023/03/19 06:18:09;;;;;;;27.40;19.77;;;12.30;98.80;;;;;;4988128;28;20049;-75
2023/03/19 06:20:35;;;;;;;24.50;18.45;;;12.30;99.10;;;;;;4988933;28;20058;-76
2023/03/19 06:23:00;;;;;;;26.92;18.90;;;12.20;99.30;;;;;;4988768;28;20113;-76
2023/03/19 06:25:26;;;;;;;25.45;18.83;;;12.30;99.30;;;;;;4987854;28;20681;-75
2023/03/19 06:27:51;;;;;;;22.23;16.90;;;12.30;99.30;;;;;;4988672;28;20023;-75
2023/03/19 06:30:17;;;;;;;30.05;20.60;;;12.30;99.10;;;;;;4987815;28;20080;-76
2023/03/19 06:32:43;;;;;;;25.10;19.00;;;12.30;99.10;;;;;;4987979;28;20025;-74
2023/03/19 06:35:09;;;;;;;25.05;18.77;;;12.30;99.10;;;;;;4988128;28;20106;-75
2023/03/19 06:37:36;;;;;;;26.38;19.52;;;12.30;99.10;;;;;;4988229;28;20037;-76
2023/03/19 06:40:03;;;;;;;28.35;20.65;;;12.30;99.10;;;;;;4988122;28;20029;-75
2023/03/19 06:42:29;;;;;;;24.30;17.98;;;12.30;99.20;;;;;;4987827;28;20070;-76
2023/03/19 06:44:55;;;;;;;28.50;21.55;;;12.40;99.20;;;;;;4987865;28;20037;-76
2023/03/19 06:47:21;;;;;;;28.58;21.77;;;12.40;99.30;;;;;;4987840;28;20018;-74
2023/03/19 06:49:47;;;;;;;26.25;19.30;;;12.40;99.00;;;;;;4989195;28;20453;-75
2023/03/19 06:52:12;;;;;;;24.55;19.23;;;12.40;99.00;;;;;;4992305;28;20066;-76
2023/03/19 06:54:38;;;;;;;27.13;18.48;;;12.40;98.90;;;;;;4991263;28;20022;-77
2023/03/19 06:57:05;;;;;;;22.00;16.02;;;12.40;98.90;;;;;;4991985;28;20073;-75
2023/03/19 06:59:30;;;;;;;24.20;16.73;;;12.40;98.90;;;;;;4991393;28;20069;-76
2023/03/19 07:01:56;;;;;;;24.42;18.70;;;12.40;99.00;;;;;;4992235;28;20022;-76
2023/03/19 07:04:22;;;;;;;27.33;20.17;;;12.40;99.00;;;;;;4991994;28;20022;-75
2023/03/19 07:06:47;;;;;;;25.48;19.08;;;12.40;98.90;;;;;;4990305;28;20026;-76
2023/03/19 07:09:13;;;;;;;23.05;17.15;;;12.40;98.80;;;;;;4991698;28;20030;-74
2023/03/19 07:11:39;;;;;;;24.90;18.02;;;12.40;98.80;;;;;;4991374;28;20022;-75
2023/03/19 07:14:04;;;;;;;19.70;13.35;;;12.40;98.90;;;;;;4990551;28;20479;-75
2023/03/19 07:16:30;;;;;;;21.67;15.95;;;12.50;98.80;;;;;;4992672;28;20054;-73
2023/03/19 07:18:56;;;;;;;27.05;19.23;;;12.50;98.60;;;;;;4991597;28;20448;-74
2023/03/19 07:21:22;;;;;;;18.42;13.80;;;12.50;98.60;;;;;;4991197;28;20019;-74
2023/03/19 07:23:49;;;;;;;20.42;14.80;;;12.60;98.60;;;;;;4990743;28;20065;-74
2023/03/19 07:26:15;;;;;;;22.80;16.95;;;12.50;98.30;;;;;;4992386;28;20023;-75
2023/03/19 07:28:41;;;;;;;20.42;15.60;;;12.60;98.40;;;;;;4991283;28;20039;-75
2023/03/19 07:31:07;;;;;;;12.00;7.70;;;12.60;98.40;;;;;;4991817;28;20097;-74
2023/03/19 07:33:32;;;;;;;15.80;11.70;;;12.60;98.20;;;;;;4990624;28;20026;-74
2023/03/19 07:35:58;;;;;;;13.73;11.15;;;12.70;97.70;;;;;;4991056;28;20022;-75
2023/03/19 07:38:24;;;;;;;13.35;9.95;;;12.80;97.90;;;;;;4991254;28;20022;-75
2023/03/19 07:40:50;;;;;;;13.45;9.10;;;12.90;97.80;;;;;;4992560;28;20042;-74
2023/03/19 07:43:16;;;;;;;10.93;7.32;;;12.90;97.60;;;;;;4992136;28;20014;-75
2023/03/19 07:45:41;;;;;;;12.25;9.35;;;12.90;97.40;;;;;;4991355;28;20019;-74
2023/03/19 07:48:07;;;;;;;16.00;11.40;;;12.80;97.60;;;;;;4991811;28;20380;-75
2023/03/19 07:50:34;;;;;;;17.30;11.82;;;12.70;97.80;;;;;;4991862;28;20421;-74
2023/03/19 07:53:00;;;;;;;17.70;12.85;;;12.70;97.80;;;;;;4992241;28;20025;-74
2023/03/19 07:55:25;;;;;;;18.05;13.43;;;12.70;98.00;;;;;;4991561;28;20026;-75
2023/03/19 07:57:51;;;;;;;17.13;12.95;;;12.60;98.10;;;;;;4992321;28;20039;-74
2023/03/19 08:00:17;;;;;;;17.20;10.75;;;12.70;97.90;;;;;;4990655;28;20034;-75
2023/03/19 08:02:43;;;;;;;20.67;14.40;;;12.70;97.70;;;;;;4991602;28;20473;-74
2023/03/19 08:05:09;;;;;;;19.70;13.32;;;12.60;97.60;;;;;;4992514;28;20061;-75
2023/03/19 08:07:35;;;;;;;17.70;11.38;;;12.60;97.70;;;;;;4992031;28;20038;-74
2023/03/19 08:10:02;;;;;;;17.35;12.98;;;12.60;98.00;;;;;;4991761;28;20052;-76
2023/03/19 08:12:28;;;;;;;14.57;10.18;;;12.60;97.80;;;;;;4991536;28;20110;-75
2023/03/19 08:14:54;;;;;;;17.50;11.60;;;12.70;97.90;;;;;;4991422;28;20015;-75
2023/03/19 08:17:20;;;;;;;13.40;11.23;;;12.70;98.00;;;;;;4990739;28;20046;-76
2023/03/19 08:19:46;;;;;;;13.50;11.60;;;12.80;97.60;;;;;;4991345;28;20465;-73
2023/03/19 08:22:12;;;;;;;15.15;12.52;;;12.80;97.40;;;;;;4990569;28;20097;-74
2023/03/19 08:24:38;;;;;;;15.23;11.73;;;12.80;97.40;;;;;;4990061;28;20034;-75
2023/03/19 08:27:03;;;;;;;16.48;11.30;;;12.90;97.30;;;;;;4990723;28;20034;-75
2023/03/19 08:29:29;;;;;;;14.98;10.88;;;13.00;97.00;;;;;;5005110;28;20429;-76
2023/03/19 08:31:57;;;;;;;21.30;14.68;;;13.00;96.80;;;;;;4990726;28;20073;-75
2023/03/19 08:34:23;;;;;;;21.17;15.13;;;13.00;96.80;;;;;;4990292;28;20030;-77
2023/03/19 08:36:49;;;;;;;16.38;13.15;;;13.00;96.70;;;;;;4990666;28;20073;-77
2023/03/19 08:39:15;;;;;;;18.58;13.00;;;13.10;96.90;;;;;;4990824;28;20027;-75
2023/03/19 08:41:41;;;;;;;22.65;15.25;;;13.10;96.50;;;;;;4990148;28;20109;-77
2023/03/19 08:44:06;;;;;;;13.88;10.13;;;13.20;96.40;;;;;;4990468;28;20473;-77
2023/03/19 08:46:32;;;;;;;19.83;12.80;;;13.10;96.30;;;;;;4990099;28;20105;-76
2023/03/19 08:48:59;;;;;;;22.80;13.98;;;13.10;96.30;;;;;;4990851;28;20010;-75
2023/03/19 08:51:25;;;;;;;14.07;11.30;;;13.10;96.10;;;;;;4990382;28;20448;-76
2023/03/19 08:53:51;;;;;;;25.85;16.38;;;13.20;96.20;;;;;;4990460;28;20373;-76
2023/03/19 08:56:17;;;;;;;22.25;16.13;;;13.10;96.00;;;;;;4990212;28;20105;-76
2023/03/19 08:58:44;;;;;;;25.75;17.25;;;13.20;96.00;;;;;;5005078;28;20042;-76
2023/03/19 09:01:12;;;;;;;29.23;21.33;;;13.10;96.20;;;;;;4990256;28;20022;-77
2023/03/19 09:03:39;;;;;;;25.98;20.20;;;13.30;96.50;;;;;;4989753;28;20058;-76
2023/03/19 09:06:07;;;;;;;22.63;17.13;;;13.30;96.10;;;;;;4989665;28;20130;-76
2023/03/19 09:08:34;;;;;;;23.70;16.17;;;13.30;95.80;;;;;;4989958;28;20061;-77
2023/03/19 09:11:00;;;;;;;22.33;17.00;;;13.40;95.60;;;;;;4989979;28;20465;-76
2023/03/19 09:13:25;;;;;;;22.23;17.35;;;13.40;95.60;;;;;;4989655;28;20077;-75
2023/03/19 09:15:51;;;;;;;24.95;19.60;;;13.30;95.50;;;;;;4989354;28;20400;-76
2023/03/19 09:18:19;;;;;;;19.38;16.17;;;13.40;95.60;;;;;;4990150;28;20034;-76
2023/03/19 09:20:46;;;;;;;20.50;17.70;;;13.70;95.40;;;;;;4989575;28;20133;-75
2023/03/19 09:23:11;;;;;;;26.75;17.90;;;13.70;94.40;;;;;;4990683;28;20034;-78
2023/03/19 09:25:38;;;;;;;20.30;16.08;;;13.80;94.40;;;;;;4989299;28;20029;-77
2023/03/19 09:28:04;;;;;;;21.85;16.50;;;14.00;94.20;;;;;;4990884;28;20061;-76
2023/03/19 09:30:30;;;;;;;20.73;16.92;;;14.10;93.60;;;;;;4989618;28;20053;-76
2023/03/19 09:32:56;;;;;;;17.05;14.18;;;14.30;93.60;;;;;;4989546;28;20022;-76
2023/03/19 09:35:22;;;;;;;17.38;15.23;;;14.60;93.00;;;;;;4990337;28;20096;-77
2023/03/19 09:37:48;;;;;;;19.77;16.45;;;15.00;93.00;;;;;;4990849;28;20035;-79
2023/03/19 09:40:43;;;;;;;20.35;16.92;;;15.30;91.80;;;;;;4992133;28;20072;-80
2023/03/19 09:43:27;;;;;;;21.60;15.10;;;15.70;91.10;;;;;;4984935;28;20043;-79
2023/03/19 09:45:55;;;;;;;20.83;16.67;;;16.00;90.90;;;;;;4990705;28;20018;-78
2023/03/19 09:48:39;;;;;;;22.13;17.67;;;16.20;90.20;;;;;;4989999;28;20131;-79
2023/03/19 09:51:12;;;;;;;22.40;17.75;;;16.40;90.00;;;;;;4989953;28;20630;-78
2023/03/19 09:53:59;;;;;;;21.27;17.38;;;16.60;88.70;;;;;;4978638;28;20523;-77
2023/03/19 09:56:26;;;;;;;19.38;17.40;;;16.90;87.80;;;;;;4984847;28;20022;-77
2023/03/19 09:58:52;;;;;;;22.42;17.77;;;17.00;87.70;;;;;;4986663;28;20061;-78
2023/03/19 10:01:27;;;;;;;24.88;18.45;;;17.20;87.00;;;;;;4986989;28;20034;-79
2023/03/19 10:03:56;;;;;;;20.45;15.88;;;17.30;85.90;;;;;;4987667;28;20117;-78
2023/03/19 10:06:22;;;;;;;22.40;17.58;;;17.40;85.70;;;;;;4983573;28;20030;-76
2023/03/19 10:09:10;;;;;;;22.73;18.10;;;17.50;85.60;;;;;;4988517;28;20260;-78
2023/03/19 10:12:02;;;;;;;16.60;14.95;;;17.70;84.30;;;;;;4975031;28;20576;-78
2023/03/19 10:14:41;;;;;;;18.02;15.40;;;17.50;84.50;;;;;;4988195;28;20026;-78
2023/03/19 10:17:15;;;;;;;22.70;18.67;;;17.60;84.70;;;;;;4990195;28;20058;-78
2023/03/19 10:19:50;;;;;;;20.17;16.08;;;17.60;84.50;;;;;;4991751;28;20313;-78
2023/03/19 10:22:27;;;;;;;20.20;16.10;;;17.60;84.00;;;;;;4991379;28;20041;-78
2023/03/19 10:24:55;;;;;;;21.25;17.17;;;17.60;83.60;;;;;;4989942;28;20026;-78
2023/03/19 10:27:25;;;;;;;21.27;18.98;;;17.60;83.10;;;;;;4989815;28;20039;-78
2023/03/19 10:29:51;;;;;;;;;;;17.50;82.80;;;;;;4990909;28;20481;-78
2023/03/19 10:32:19;;;;;;;22.90;19.27;;;17.40;83.70;;;;;;4989427;28;19972;-80
2023/03/19 10:34:49;;;;;;;26.60;21.05;;;17.30;83.70;;;;;;4988817;28;20116;-78
2023/03/19 10:37:26;;;;;;;22.98;20.15;;;17.00;84.40;;;;;;4989642;28;20068;-78
2023/03/19 10:39:56;;;;;;;21.85;18.17;;;16.90;85.40;;;;;;4989699;28;20030;-78
2023/03/19 10:42:46;;;;;;;19.33;17.08;;;17.20;85.30;;;;;;4990574;28;20022;-78
2023/03/19 10:45:20;;;;;;;28.42;19.10;;;17.30;84.60;;;;;;4982438;28;20465;-79
2023/03/19 10:47:46;;;;;;;20.40;18.10;;;17.50;84.60;;;;;;4989661;28;20022;-78
2023/03/19 10:50:34;;;;;;;22.35;19.92;;;17.70;83.60;;;;;;4985834;28;20117;-79
2023/03/19 10:53:05;;;;;;;18.98;16.48;;;17.90;82.70;;;;;;4985376;28;20486;-79
2023/03/19 10:55:31;;;;;;;27.80;20.17;;;17.90;82.60;;;;;;4989841;28;20481;-78
2023/03/19 10:58:06;;;;;;;24.17;21.00;;;17.90;82.50;;;;;;4983653;28;20504;-79
2023/03/19 11:00:34;;;;;;;30.05;22.27;;;18.10;82.10;;;;;;4987911;28;20052;-78
2023/03/19 11:03:03;;;;;;;29.85;22.58;;;18.30;81.80;;;;;;4989322;28;20042;-78
2023/03/19 11:05:32;;;;;;;26.03;21.77;;;18.50;82.00;;;;;;4989160;28;20018;-78
2023/03/19 11:08:01;;;;;;;26.02;23.35;;;18.60;80.50;;;;;;4988946;28;20264;-79
2023/03/19 11:10:30;;;;;;;19.97;15.17;;;18.70;80.10;;;;;;4986608;28;20027;-77
2023/03/19 11:13:04;;;;;;;24.88;20.73;;;18.70;82.20;;;;;;4982418;28;20266;-79
2023/03/19 11:15:36;;;;;;;21.70;19.33;;;18.90;80.40;;;;;;4988100;28;20461;-78
2023/03/19 11:18:14;;;;;;;24.83;20.55;;;19.20;78.50;;;;;;5004616;28;20098;-77
2023/03/19 11:20:40;;;;;;;25.38;22.23;;;19.40;77.00;;;;;;4985656;28;20110;-78
2023/03/19 11:23:15;;;;;;;22.85;19.63;;;19.50;76.20;;;;;;5001332;28;20037;-78
2023/03/19 11:25:57;;;;;;;24.77;18.98;;;19.50;77.90;;;;;;4993191;28;20484;-77
2023/03/19 11:28:28;;;;;;;22.83;19.38;;;19.50;76.40;;;;;;4989752;28;20568;-79
2023/03/19 11:31:23;;;;;;;24.35;18.63;;;19.60;75.00;;;;;;4988865;28;20102;-79
2023/03/19 11:33:51;;;;;;;21.25;19.13;;;19.70;74.90;;;;;;4988931;28;20859;-79
2023/03/19 11:36:26;;;;;;;23.88;18.73;;;19.90;74.80;;;;;;4987579;28;20069;-78
2023/03/19 11:39:04;;;;;;;20.60;14.93;;;20.00;74.50;;;;;;4987895;28;20038;-79
2023/03/19 11:41:32;;;;;;;24.33;18.67;;;20.00;78.40;;;;;;4987987;28;20037;-79
2023/03/19 11:44:05;;;;;;;21.77;18.13;;;20.10;74.50;;;;;;4980460;28;20026;-78
2023/03/19 11:46:55;;;;;;;24.55;17.88;;;20.00;74.00;;;;;;4991318;28;20036;-79
2023/03/19 11:49:59;;;;;;;24.85;19.73;;;19.80;75.00;;;;;;4988806;28;20030;-78
2023/03/19 11:52:40;;;;;;;25.30;17.42;;;19.50;78.70;;;;;;4993191;28;20031;-78
2023/03/19 11:55:24;;;;;;;24.90;19.13;;;19.40;78.30;;;;;;4995144;28;20065;-78
2023/03/19 11:58:18;;;;;;;26.13;19.98;;;19.20;76.50;;;;;;4989661;28;20470;-78
2023/03/19 12:00:44;;;;;;;20.45;17.63;;;19.10;77.40;;;;;;4990224;28;20029;-79
2023/03/19 12:03:28;;;;;;;26.48;20.23;;;19.00;77.60;;;;;;4991776;28;20035;-79
2023/03/19 12:06:17;;;;;;;33.55;19.98;;;18.80;78.30;;;;;;4991248;28;20105;-78
2023/03/19 12:09:02;;;;;;;31.63;22.55;;;18.50;80.50;;;;;;4989395;28;20093;-78
2023/03/19 12:11:34;;;;;;;31.48;20.45;;;18.00;79.50;;;;;;4990259;28;20425;-77
2023/03/19 12:14:29;;;;;;;36.38;19.90;;;17.70;82.60;;;;;;4992005;28;20061;-79
2023/03/19 12:17:19;;;;;;;31.95;22.52;;;17.40;82.00;;;;;;4991793;28;20047;-78
2023/03/19 12:20:13;;;;;;;31.60;20.30;;;17.10;82.60;;;;;;4991414;28;20757;-79
2023/03/19 12:23:26;;;;;;;27.92;19.90;;;16.90;83.60;;;;;;5006140;28;20026;-79
2023/03/19 12:26:03;;;;;;;34.08;20.67;;;16.80;84.50;;;;;;4980968;28;20046;-79
2023/03/19 12:28:40;;;;;;;29.65;19.02;;;16.60;85.20;;;;;;4993513;28;20030;-79
2023/03/19 12:31:19;;;;;;;28.98;18.92;;;16.70;85.00;;;;;;4993337;28;20037;-80
2023/03/19 12:34:19;;;;;;;31.95;18.88;;;16.90;84.40;;;;;;4992212;28;20352;-81
2023/03/19 12:37:36;;;;;;;27.98;18.13;;;17.00;84.40;;;;;;4990039;28;20081;-79
2023/03/19 12:40:23;;;;;;;21.40;14.85;;;17.40;83.50;;;;;;4999894;28;20042;-78
2023/03/19 12:42:50;;;;;;;22.15;13.77;;;17.80;83.80;;;;;;4991089;28;20489;-78
2023/03/19 12:45:24;;;;;;;24.70;17.50;;;18.00;83.20;;;;;;4990824;28;20026;-78